sensor_id;sensor_type;location;lat;lon;timestamp;pressure;altitude;pressure_sealevel;temperature;humidity
50933;BME280;36921;49.006;9.292;2023-11-21T00:02:12;98278.75;;;7.39;100.00
50933;BME280;36921;49.006;9.292;2023-11-21T00:04:37;98280.59;;;7.39;100.00
50933;BME280;36921;49.006;9.292;2023-11-21T00:07:03;98278.75;;;7.39;100.00
50933;BME280;36921;49.006;9.292;2023-11-21T00:09:29;98272.13;;;7.42;100.00
50933;BME280;36921;49.006;9.292;2023-11-21T00:11:55;98265.06;;;7.41;100.00
50933;BME280;36921;49.006;9.292;2023-11-21T00:14:20;98266.53;;;7.43;100.00
50933;BME280;36921;49.006;9.292;2023-11-21T00:16:46;98265.72;;;7.43;100.00
50933;BME280;36921;49.006;9.292;2023-11-21T00:19:12;98274.00;;;7.41;100.00
50933;BME280;36921;49.006;9.292;2023-11-21T00:21:37;98265.72;;;7.43;100.00
50933;BME280;36921;49.006;9.292;2023-11-21T00:24:03;98266.34;;;7.45;100.00
50933;BME280;36921;49.006;9.292;2023-11-21T00:26:28;98268.41;;;7.43;100.00
50933;BME280;36921;49.006;9.292;2023-11-21T00:28:53;98262.59;;;7.39;100.00
50933;BME280;36921;49.006;9.292;2023-11-21T00:31:19;98253.06;;;7.43;100.00
50933;BME280;36921;49.006;9.292;2023-11-21T00:33:44;98259.69;;;7.41;100.00
50933;BME280;36921;49.006;9.292;2023-11-21T00:36:09;98249.97;;;7.40;100.00
50933;BME280;36921;49.006;9.292;2023-11-21T00:38:36;98268.81;;;7.40;100.00
50933;BME280;36921;49.006;9.292;2023-11-21T00:41:01;98265.06;;;7.41;100.00
50933;BME280;36921;49.006;9.292;2023-11-21T00:43:28;98265.06;;;7.41;100.00
50933;BME280;36921;49.006;9.292;2023-11-21T00:45:53;98261.63;;;7.47;100.00
50933;BME280;36921;49.006;9.292;2023-11-21T00:48:18;98266.78;;;7.49;100.00
50933;BME280;36921;49.006;9.292;2023-11-21T00:50:44;98265.31;;;7.46;100.00
50933;BME280;36921;49.006;9.292;2023-11-21T00:53:09;98273.38;;;7.46;100.00
50933;BME280;36921;49.006;9.292;2023-11-21T00:55:36;98275.91;;;7.47;100.00
50933;BME280;36921;49.006;9.292;2023-11-21T00:58:01;98265.78;;;7.50;100.00
50933;BME280;36921;49.006;9.292;2023-11-21T01:00:29;98260.41;;;7.56;100.00
50933;BME280;36921;49.006;9.292;2023-11-21T01:02:55;98261.84;;;7.52;100.00
50933;BME280;36921;49.006;9.292;2023-11-21T01:05:20;98262.69;;;7.53;100.00
50933;BME280;36921;49.006;9.292;2023-11-21T01:07:45;98260.63;;;7.55;100.00
50933;BME280;36921;49.006;9.292;2023-11-21T01:10:11;98260.22;;;7.58;100.00
50933;BME280;36921;49.006;9.292;2023-11-21T01:12:37;98260.81;;;7.53;100.00
50933;BME280;36921;49.006;9.292;2023-11-21T01:15:04;98254.78;;;7.51;100.00
50933;BME280;36921;49.006;9.292;2023-11-21T01:17:32;98267.03;;;7.54;100.00
50933;BME280;36921;49.006;9.292;2023-11-21T01:19:59;98237.66;;;7.31;100.00
50933;BME280;36921;49.006;9.292;2023-11-21T01:22:25;98241.47;;;7.36;100.00
50933;BME280;36921;49.006;9.292;2023-11-21T01:24:52;98257.28;;;7.53;100.00
50933;BME280;36921;49.006;9.292;2023-11-21T01:27:17;98262.28;;;7.56;100.00
50933;BME280;36921;49.006;9.292;2023-11-21T01:29:43;98251.91;;;7.53;100.00
50933;BME280;36921;49.006;9.292;2023-11-21T01:32:09;98253.53;;;7.47;100.00
50933;BME280;36921;49.006;9.292;2023-11-21T01:34:35;98261.84;;;7.52;100.00
50933;BME280;36921;49.006;9.292;2023-11-21T01:37:00;98252.31;;;7.50;100.00
50933;BME280;36921;49.006;9.292;2023-11-21T01:39:26;98245.00;;;7.43;100.00
50933;BME280;36921;49.006;9.292;2023-11-21T01:41:51;98259.16;;;7.52;100.00
50933;BME280;36921;49.006;9.292;2023-11-21T01:44:17;98242.94;;;7.39;100.00
50933;BME280;36921;49.006;9.292;2023-11-21T01:46:44;98253.06;;;7.43;100.00
50933;BME280;36921;49.006;9.292;2023-11-21T01:49:10;98244.41;;;7.41;100.00
50933;BME280;36921;49.006;9.292;2023-11-21T01:51:41;98246.88;;;7.43;100.00
50933;BME280;36921;49.006;9.292;2023-11-21T01:54:08;98256.84;;;7.49;100.00
50933;BME280;36921;49.006;9.292;2023-11-21T01:56:34;98267.25;;;7.52;100.00
50933;BME280;36921;49.006;9.292;2023-11-21T01:59:00;98262.88;;;7.51;100.00
50933;BME280;36921;49.006;9.292;2023-11-21T02:01:25;98240.44;;;7.44;100.00
50933;BME280;36921;49.006;9.292;2023-11-21T02:03:51;98260.22;;;7.58;100.00
50933;BME280;36921;49.006;9.292;2023-11-21T02:06:17;98245.47;;;7.47;100.00
50933;BME280;36921;49.006;9.292;2023-11-21T02:08:43;98252.31;;;7.50;100.00
50933;BME280;36921;49.006;9.292;2023-11-21T02:11:09;98264.38;;;7.60;100.00
50933;BME280;36921;49.006;9.292;2023-11-21T02:13:38;98260.00;;;7.59;100.00
50933;BME280;36921;49.006;9.292;2023-11-21T02:16:03;98253.16;;;7.57;100.00
50933;BME280;36921;49.006;9.292;2023-11-21T02:18:30;98238.47;;;7.59;100.00
50933;BME280;36921;49.006;9.292;2023-11-21T02:20:56;98254.28;;;7.69;100.00
50933;BME280;36921;49.006;9.292;2023-11-21T02:23:21;98259.00;;;7.60;100.00
50933;BME280;36921;49.006;9.292;2023-11-21T02:25:48;98261.94;;;7.65;100.00
50933;BME280;36921;49.006;9.292;2023-11-21T02:38:21;98256.56;;;7.65;100.00
50933;BME280;36921;49.006;9.292;2023-11-21T02:40:46;98250.31;;;7.65;100.00
50933;BME280;36921;49.006;9.292;2023-11-21T02:43:11;98250.94;;;7.60;100.00
50933;BME280;36921;49.006;9.292;2023-11-21T02:45:37;98253.84;;;7.65;100.00
50933;BME280;36921;49.006;9.292;2023-11-21T02:48:02;98252.00;;;7.66;100.00
50933;BME280;36921;49.006;9.292;2023-11-21T02:50:28;98251.59;;;7.69;100.00
50933;BME280;36921;49.006;9.292;2023-11-21T02:52:55;98227.44;;;7.47;100.00
50933;BME280;36921;49.006;9.292;2023-11-21T02:55:22;98233.94;;;7.60;100.00
50933;BME280;36921;49.006;9.292;2023-11-21T02:57:50;98224.16;;;7.52;100.00
50933;BME280;36921;49.006;9.292;2023-11-21T03:00:16;98233.72;;;7.61;100.00
50933;BME280;36921;49.006;9.292;2023-11-21T03:02:42;98237.09;;;7.70;100.00
50933;BME280;36921;49.006;9.292;2023-11-21T03:05:08;98225.66;;;7.61;100.00
50933;BME280;36921;49.006;9.292;2023-11-21T03:07:37;98250.41;;;7.78;100.00
50933;BME280;36921;49.006;9.292;2023-11-21T03:10:03;98220.69;;;7.65;100.00
50933;BME280;36921;49.006;9.292;2023-11-21T03:12:29;98224.06;;;7.74;100.00
50933;BME280;36921;49.006;9.292;2023-11-21T03:14:54;98223.38;;;7.65;100.00
50933;BME280;36921;49.006;9.292;2023-11-21T03:17:20;98223.38;;;7.58;100.00
50933;BME280;36921;49.006;9.292;2023-11-21T03:19:46;98244.34;;;7.69;100.00
50933;BME280;36921;49.006;9.292;2023-11-21T03:22:11;98214.81;;;7.48;100.00
50933;BME280;36921;49.006;9.292;2023-11-21T03:24:37;98248.94;;;7.76;100.00
50933;BME280;36921;49.006;9.292;2023-11-21T03:27:03;98195.16;;;7.47;100.00
50933;BME280;36921;49.006;9.292;2023-11-21T03:29:28;98250.66;;;7.83;100.00
50933;BME280;36921;49.006;9.292;2023-11-21T03:31:54;98242.28;;;7.72;100.00
50933;BME280;36921;49.006;9.292;2023-11-21T03:34:27;98252.41;;;7.69;100.00
50933;BME280;36921;49.006;9.292;2023-11-21T03:36:53;98261.19;;;7.78;100.00
50933;BME280;36921;49.006;9.292;2023-11-21T03:39:21;98262.66;;;7.81;100.00
50933;BME280;36921;49.006;9.292;2023-11-21T03:41:47;98255.75;;;7.72;100.00
50933;BME280;36921;49.006;9.292;2023-11-21T03:44:13;98240.00;;;7.68;100.00
50933;BME280;36921;49.006;9.292;2023-11-21T03:46:39;98251.63;;;7.76;100.00
50933;BME280;36921;49.006;9.292;2023-11-21T03:49:04;98252.81;;;7.66;100.00
50933;BME280;36921;49.006;9.292;2023-11-21T03:51:29;98258.88;;;7.75;100.00
50933;BME280;36921;49.006;9.292;2023-11-21T03:53:55;98261.13;;;7.72;100.00
50933;BME280;36921;49.006;9.292;2023-11-21T03:56:20;98248.25;;;7.60;100.00
50933;BME280;36921;49.006;9.292;2023-11-21T03:58:48;98271.91;;;7.72;100.00
50933;BME280;36921;49.006;9.292;2023-11-21T04:01:23;98250.47;;;7.57;100.00
50933;BME280;36921;49.006;9.292;2023-11-21T04:03:50;98246.31;;;7.54;100.00
50933;BME280;36921;49.006;9.292;2023-11-21T04:06:19;98270.00;;;7.65;100.00
50933;BME280;36921;49.006;9.292;2023-11-21T04:08:44;98273.53;;;7.66;100.00
50933;BME280;36921;49.006;9.292;2023-11-21T04:11:10;98263.09;;;7.56;100.00
50933;BME280;36921;49.006;9.292;2023-11-21T04:13:37;98275.16;;;7.60;100.00
50933;BME280;36921;49.006;9.292;2023-11-21T04:16:04;98226.31;;;7.35;100.00
50933;BME280;36921;49.006;9.292;2023-11-21T04:18:29;98243.38;;;7.49;100.00
50933;BME280;36921;49.006;9.292;2023-11-21T04:20:54;98250.47;;;7.57;100.00
50933;BME280;36921;49.006;9.292;2023-11-21T04:23:20;98244.66;;;7.53;100.00
50933;BME280;36921;49.006;9.292;2023-11-21T04:25:45;98267.34;;;7.72;100.00
50933;BME280;36921;49.006;9.292;2023-11-21T04:28:10;98265.72;;;7.78;100.00
50933;BME280;36921;49.006;9.292;2023-11-21T04:30:36;98264.47;;;7.74;100.00
50933;BME280;36921;49.006;9.292;2023-11-21T04:33:01;98252.81;;;7.66;100.00
50933;BME280;36921;49.006;9.292;2023-11-21T04:35:28;98270.72;;;7.81;100.00
50933;BME280;36921;49.006;9.292;2023-11-21T04:37:53;98278.41;;;7.84;100.00
50933;BME280;36921;49.006;9.292;2023-11-21T04:40:18;98286.03;;;7.80;100.00
50933;BME280;36921;49.006;9.292;2023-11-21T04:42:45;98274.66;;;7.78;100.00
50933;BME280;36921;49.006;9.292;2023-11-21T04:45:11;98281.91;;;7.84;100.00
50933;BME280;36921;49.006;9.292;2023-11-21T04:47:37;98259.25;;;7.72;100.00
50933;BME280;36921;49.006;9.292;2023-11-21T04:50:05;98281.03;;;7.71;100.00
50933;BME280;36921;49.006;9.292;2023-11-21T04:52:31;98277.03;;;7.66;100.00
50933;BME280;36921;49.006;9.292;2023-11-21T04:54:57;98280.13;;;7.63;100.00
50933;BME280;36921;49.006;9.292;2023-11-21T04:57:24;98287.16;;;7.58;100.00
50933;BME280;36921;49.006;9.292;2023-11-21T04:59:49;98285.28;;;7.58;100.00
50933;BME280;36921;49.006;9.292;2023-11-21T05:02:15;98292.78;;;7.63;100.00
50933;BME280;36921;49.006;9.292;2023-11-21T05:04:41;98295.66;;;7.61;100.00
50933;BME280;36921;49.006;9.292;2023-11-21T05:07:08;98277.53;;;7.49;100.00
50933;BME280;36921;49.006;9.292;2023-11-21T05:09:33;98282.94;;;7.49;100.00
50933;BME280;36921;49.006;9.292;2023-11-21T05:11:59;98289.13;;;7.49;100.00
50933;BME280;36921;49.006;9.292;2023-11-21T05:14:25;98290.00;;;7.50;100.00
50933;BME280;36921;49.006;9.292;2023-11-21T05:16:50;98302.00;;;7.47;100.00
50933;BME280;36921;49.006;9.292;2023-11-21T05:19:17;98293.91;;;7.47;100.00
50933;BME280;36921;49.006;9.292;2023-11-21T05:21:42;98296.84;;;7.52;100.00
50933;BME280;36921;49.006;9.292;2023-11-21T05:24:07;98288.78;;;7.52;100.00
50933;BME280;36921;49.006;9.292;2023-11-21T05:26:32;98287.66;;;7.46;100.00
50933;BME280;36921;49.006;9.292;2023-11-21T05:28:58;98309.44;;;7.52;100.00
50933;BME280;36921;49.006;9.292;2023-11-21T05:31:23;98297.84;;;7.51;100.00
50933;BME280;36921;49.006;9.292;2023-11-21T05:33:48;98320.31;;;7.65;100.00
50933;BME280;36921;49.006;9.292;2023-11-21T05:36:13;98322.56;;;7.61;100.00
50933;BME280;36921;49.006;9.292;2023-11-21T05:38:39;98319.94;;;7.68;100.00
50933;BME280;36921;49.006;9.292;2023-11-21T05:41:04;98320.31;;;7.65;100.00
50933;BME280;36921;49.006;9.292;2023-11-21T05:43:30;98332.13;;;7.64;100.00
50933;BME280;36921;49.006;9.292;2023-11-21T05:45:56;98324.00;;;7.57;100.00
50933;BME280;36921;49.006;9.292;2023-11-21T05:48:21;98337.50;;;7.64;100.00
50933;BME280;36921;49.006;9.292;2023-11-21T05:50:47;98324.38;;;7.54;100.00
50933;BME280;36921;49.006;9.292;2023-11-21T05:53:14;98322.78;;;7.60;100.00
50933;BME280;36921;49.006;9.292;2023-11-21T05:55:41;98321.94;;;7.59;100.00
50933;BME280;36921;49.006;9.292;2023-11-21T05:58:06;98326.63;;;7.51;100.00
50933;BME280;36921;49.006;9.292;2023-11-21T06:00:32;98339.56;;;7.62;100.00
50933;BME280;36921;49.006;9.292;2023-11-21T06:02:58;98345.78;;;7.62;100.00
50933;BME280;36921;49.006;9.292;2023-11-21T06:05:25;98351.78;;;7.64;100.00
50933;BME280;36921;49.006;9.292;2023-11-21T06:07:51;98352.19;;;7.61;100.00
50933;BME280;36921;49.006;9.292;2023-11-21T06:10:17;98335.53;;;7.51;100.00
50933;BME280;36921;49.006;9.292;2023-11-21T06:12:44;98353.50;;;7.72;100.00
50933;BME280;36921;49.006;9.292;2023-11-21T06:15:10;98360.34;;;7.75;100.00
50933;BME280;36921;49.006;9.292;2023-11-21T06:17:38;98360.75;;;7.72;100.00
50933;BME280;36921;49.006;9.292;2023-11-21T06:20:05;98366.78;;;7.74;100.00
50933;BME280;36921;49.006;9.292;2023-11-21T06:22:38;98365.50;;;7.69;100.00
50933;BME280;36921;49.006;9.292;2023-11-21T06:25:03;98372.03;;;7.82;100.00
50933;BME280;36921;49.006;9.292;2023-11-21T06:27:31;98364.69;;;7.69;100.00
50933;BME280;36921;49.006;9.292;2023-11-21T06:29:57;98365.50;;;7.69;100.00
50933;BME280;36921;49.006;9.292;2023-11-21T06:32:22;98371.53;;;7.72;100.00
50933;BME280;36921;49.006;9.292;2023-11-21T06:34:48;98328.03;;;7.46;100.00
50933;BME280;36921;49.006;9.292;2023-11-21T06:37:14;98370.03;;;7.62;100.00
50933;BME280;36921;49.006;9.292;2023-11-21T06:39:40;98341.28;;;7.41;100.00
50933;BME280;36921;49.006;9.292;2023-11-21T06:42:05;98388.63;;;7.57;100.00
50933;BME280;36921;49.006;9.292;2023-11-21T06:44:30;98382.59;;;7.55;100.00
50933;BME280;36921;49.006;9.292;2023-11-21T06:46:56;98384.47;;;7.55;100.00
50933;BME280;36921;49.006;9.292;2023-11-21T06:49:21;98380.66;;;7.49;100.00
50933;BME280;36921;49.006;9.292;2023-11-21T06:51:46;98363.63;;;7.42;100.00
50933;BME280;36921;49.006;9.292;2023-11-21T06:54:12;98394.00;;;7.57;100.00
50933;BME280;36921;49.006;9.292;2023-11-21T06:56:37;98392.28;;;7.50;100.00
50933;BME280;36921;49.006;9.292;2023-11-21T06:59:04;98381.88;;;7.46;100.00
50933;BME280;36921;49.006;9.292;2023-11-21T07:01:30;98395.47;;;7.60;100.00
50933;BME280;36921;49.006;9.292;2023-11-21T07:03:58;98387.50;;;7.52;100.00
50933;BME280;36921;49.006;9.292;2023-11-21T07:06:23;98401.88;;;7.59;100.00
50933;BME280;36921;49.006;9.292;2023-11-21T07:08:48;98410.00;;;7.65;100.00
50933;BME280;36921;49.006;9.292;2023-11-21T07:13:41;98416.41;;;7.64;100.00
50933;BME280;36921;49.006;9.292;2023-11-21T07:16:07;98413.47;;;7.59;100.00
50933;BME280;36921;49.006;9.292;2023-11-21T07:18:32;98419.31;;;7.63;100.00
50933;BME280;36921;49.006;9.292;2023-11-21T07:20:57;98421.19;;;7.62;100.00
50933;BME280;36921;49.006;9.292;2023-11-21T07:23:24;98433.47;;;7.72;100.00
50933;BME280;36921;49.006;9.292;2023-11-21T07:25:49;98433.53;;;7.78;100.00
50933;BME280;36921;49.006;9.292;2023-11-21T07:28:15;98437.94;;;7.86;100.00
50933;BME280;36921;49.006;9.292;2023-11-21T07:30:40;98437.94;;;7.86;100.00
50933;BME280;36921;49.006;9.292;2023-11-21T07:33:06;98443.38;;;7.93;100.00
50933;BME280;36921;49.006;9.292;2023-11-21T07:35:33;98449.19;;;7.96;100.00
50933;BME280;36921;49.006;9.292;2023-11-21T07:37:59;98452.13;;;8.01;100.00
50933;BME280;36921;49.006;9.292;2023-11-21T07:40:24;98454.81;;;8.01;100.00
50933;BME280;36921;49.006;9.292;2023-11-21T07:42:51;98447.78;;;8.00;100.00
50933;BME280;36921;49.006;9.292;2023-11-21T07:45:16;98459.84;;;8.04;100.00
50933;BME280;36921;49.006;9.292;2023-11-21T07:47:42;98449.28;;;8.09;100.00
50933;BME280;36921;49.006;9.292;2023-11-21T07:50:08;98452.19;;;8.08;100.00
50933;BME280;36921;49.006;9.292;2023-11-21T07:52:35;98459.00;;;8.04;100.00
50933;BME280;36921;49.006;9.292;2023-11-21T07:55:00;98447.00;;;8.06;100.00
50933;BME280;36921;49.006;9.292;2023-11-21T07:57:26;98457.00;;;8.12;100.00
50933;BME280;36921;49.006;9.292;2023-11-21T07:59:52;98459.56;;;8.27;100.00
50933;BME280;36921;49.006;9.292;2023-11-21T08:02:19;98461.28;;;8.35;100.00
50933;BME280;36921;49.006;9.292;2023-11-21T08:04:44;98458.94;;;8.53;100.00
50933;BME280;36921;49.006;9.292;2023-11-21T08:07:10;98453.91;;;8.78;100.00
50933;BME280;36921;49.006;9.292;2023-11-21T08:09:36;98462.88;;;8.92;100.00
50933;BME280;36921;49.006;9.292;2023-11-21T08:12:01;98461.53;;;9.23;100.00
50933;BME280;36921;49.006;9.292;2023-11-21T08:14:27;98453.84;;;9.27;100.00
50933;BME280;36921;49.006;9.292;2023-11-21T08:16:53;98459.13;;;9.55;100.00
50933;BME280;36921;49.006;9.292;2023-11-21T08:19:23;98456.03;;;9.64;100.00
50933;BME280;36921;49.006;9.292;2023-11-21T08:21:51;98456.00;;;9.58;100.00
50933;BME280;36921;49.006;9.292;2023-11-21T08:24:19;98449.94;;;9.42;100.00
50933;BME280;36921;49.006;9.292;2023-11-21T08:26:44;98455.53;;;9.34;100.00
50933;BME280;36921;49.006;9.292;2023-11-21T08:29:10;98452.66;;;9.42;100.00
50933;BME280;36921;49.006;9.292;2023-11-21T08:31:35;98455.16;;;9.51;100.00
50933;BME280;36921;49.006;9.292;2023-11-21T08:34:01;98449.75;;;9.44;100.00
50933;BME280;36921;49.006;9.292;2023-11-21T08:36:27;98460.75;;;9.42;100.00
50933;BME280;36921;49.006;9.292;2023-11-21T08:38:53;98457.41;;;9.34;100.00
50933;BME280;36921;49.006;9.292;2023-11-21T08:41:18;98455.72;;;9.26;100.00
50933;BME280;36921;49.006;9.292;2023-11-21T08:43:49;98460.06;;;9.20;100.00
50933;BME280;36921;49.006;9.292;2023-11-21T08:46:14;98458.84;;;9.30;100.00
50933;BME280;36921;49.006;9.292;2023-11-21T08:48:40;98461.97;;;9.40;100.00
50933;BME280;36921;49.006;9.292;2023-11-21T08:51:06;98466.34;;;9.34;100.00
50933;BME280;36921;49.006;9.292;2023-11-21T08:53:33;98473.22;;;9.43;100.00
50933;BME280;36921;49.006;9.292;2023-11-21T08:55:58;98474.06;;;9.51;100.00
50933;BME280;36921;49.006;9.292;2023-11-21T08:58:24;98473.06;;;9.72;100.00
50933;BME280;36921;49.006;9.292;2023-11-21T09:00:49;98477.00;;;9.69;100.00
50933;BME280;36921;49.006;9.292;2023-11-21T09:03:15;98465.56;;;9.54;100.00
50933;BME280;36921;49.006;9.292;2023-11-21T09:05:41;98472.00;;;9.46;100.00
50933;BME280;36921;49.006;9.292;2023-11-21T09:08:06;98480.06;;;9.33;100.00
50933;BME280;36921;49.006;9.292;2023-11-21T09:10:34;98478.19;;;9.40;100.00
50933;BME280;36921;49.006;9.292;2023-11-21T09:13:02;98476.53;;;9.39;100.00
50933;BME280;36921;49.006;9.292;2023-11-21T09:15:27;98484.22;;;9.42;100.00
50933;BME280;36921;49.006;9.292;2023-11-21T09:17:54;98482.13;;;9.37;100.00
50933;BME280;36921;49.006;9.292;2023-11-21T09:20:19;98492.75;;;9.52;100.00
50933;BME280;36921;49.006;9.292;2023-11-21T09:22:48;98494.06;;;9.70;100.00
50933;BME280;36921;49.006;9.292;2023-11-21T09:25:15;98489.28;;;9.85;100.00
50933;BME280;36921;49.006;9.292;2023-11-21T09:27:40;98498.44;;;9.77;100.00
50933;BME280;36921;49.006;9.292;2023-11-21T09:30:07;98497.81;;;9.88;100.00
50933;BME280;36921;49.006;9.292;2023-11-21T09:32:35;98511.31;;;9.95;100.00
50933;BME280;36921;49.006;9.292;2023-11-21T09:35:03;98508.41;;;9.97;100.00
50933;BME280;36921;49.006;9.292;2023-11-21T09:37:28;98510.28;;;9.90;100.00
50933;BME280;36921;49.006;9.292;2023-11-21T09:39:54;98507.56;;;9.90;100.00
50933;BME280;36921;49.006;9.292;2023-11-21T09:42:23;98510.31;;;9.96;100.00
50933;BME280;36921;49.006;9.292;2023-11-21T09:45:03;98504.66;;;10.11;100.00
50933;BME280;36921;49.006;9.292;2023-11-21T09:47:32;98499.91;;;10.00;100.00
50933;BME280;36921;49.006;9.292;2023-11-21T09:50:01;98503.84;;;10.10;100.00
50933;BME280;36921;49.006;9.292;2023-11-21T09:52:27;98509.47;;;10.22;100.00
50933;BME280;36921;49.006;9.292;2023-11-21T09:54:54;98499.50;;;10.49;100.00
50933;BME280;36921;49.006;9.292;2023-11-21T09:57:23;98497.00;;;10.48;100.00
50933;BME280;36921;49.006;9.292;2023-11-21T09:59:52;98497.84;;;10.48;100.00
50933;BME280;36921;49.006;9.292;2023-11-21T10:02:25;98501.75;;;10.72;100.00
50933;BME280;36921;49.006;9.292;2023-11-21T10:04:52;98493.53;;;11.06;100.00
50933;BME280;36921;49.006;9.292;2023-11-21T10:07:19;98490.41;;;11.02;100.00
50933;BME280;36921;49.006;9.292;2023-11-21T10:09:47;98489.38;;;11.48;100.00
50933;BME280;36921;49.006;9.292;2023-11-21T10:12:15;98481.75;;;11.32;100.00
50933;BME280;36921;49.006;9.292;2023-11-21T10:14:41;98486.94;;;11.40;100.00
50933;BME280;36921;49.006;9.292;2023-11-21T10:17:10;98485.34;;;11.19;100.00
50933;BME280;36921;49.006;9.292;2023-11-21T10:19:38;98483.66;;;11.25;100.00
50933;BME280;36921;49.006;9.292;2023-11-21T10:22:05;98487.94;;;11.39;100.00
50933;BME280;36921;49.006;9.292;2023-11-21T10:24:32;98482.16;;;11.67;100.00
50933;BME280;36921;49.006;9.292;2023-11-21T10:26:58;98486.31;;;11.70;100.00
50933;BME280;36921;49.006;9.292;2023-11-21T10:29:23;98483.00;;;11.68;100.00
50933;BME280;36921;49.006;9.292;2023-11-21T10:31:50;98468.63;;;11.29;100.00
50933;BME280;36921;49.006;9.292;2023-11-21T10:34:20;98485.06;;;10.82;100.00
50933;BME280;36921;49.006;9.292;2023-11-21T10:36:46;98495.34;;;10.47;100.00
50933;BME280;36921;49.006;9.292;2023-11-21T10:39:19;98499.06;;;10.26;100.00
50933;BME280;36921;49.006;9.292;2023-11-21T10:41:46;98509.25;;;10.10;100.00
50933;BME280;36921;49.006;9.292;2023-11-21T10:44:18;98516.34;;;10.12;100.00
50933;BME280;36921;49.006;9.292;2023-11-21T10:46:53;98524.00;;;9.95;100.00
50933;BME280;36921;49.006;9.292;2023-11-21T10:49:22;98524.66;;;10.23;100.00
50933;BME280;36921;49.006;9.292;2023-11-21T10:51:52;98525.09;;;10.47;100.00
50933;BME280;36921;49.006;9.292;2023-11-21T10:54:24;98517.97;;;10.72;100.00
50933;BME280;36921;49.006;9.292;2023-11-21T10:56:56;98507.91;;;11.00;100.00
50933;BME280;36921;49.006;9.292;2023-11-21T10:59:22;98501.16;;;11.22;100.00
50933;BME280;36921;49.006;9.292;2023-11-21T11:01:50;98494.88;;;11.28;100.00
50933;BME280;36921;49.006;9.292;2023-11-21T11:04:21;98491.53;;;11.33;100.00
50933;BME280;36921;49.006;9.292;2023-11-21T11:07:08;98496.78;;;11.66;100.00
50933;BME280;36921;49.006;9.292;2023-11-21T11:09:34;98490.38;;;11.85;100.00
50933;BME280;36921;49.006;9.292;2023-11-21T11:12:02;98485.75;;;11.61;100.00
50933;BME280;36921;49.006;9.292;2023-11-21T11:14:29;98482.97;;;11.74;100.00
50933;BME280;36921;49.006;9.292;2023-11-21T11:16:55;98490.69;;;11.71;100.00
50933;BME280;36921;49.006;9.292;2023-11-21T11:19:24;98490.13;;;11.62;100.00
50933;BME280;36921;49.006;9.292;2023-11-21T11:27:39;98493.56;;;11.44;100.00
50933;BME280;36921;49.006;9.292;2023-11-21T11:32:56;98504.22;;;11.71;100.00
50933;BME280;36921;49.006;9.292;2023-11-21T11:38:32;98485.59;;;12.63;100.00
50933;BME280;36921;49.006;9.292;2023-11-21T11:41:01;98477.16;;;13.08;100.00
50933;BME280;36921;49.006;9.292;2023-11-21T11:43:29;98481.97;;;13.43;100.00
50933;BME280;36921;49.006;9.292;2023-11-21T11:46:02;98476.75;;;13.41;100.00
50933;BME280;36921;49.006;9.292;2023-11-21T11:48:29;98475.03;;;13.47;100.00
50933;BME280;36921;49.006;9.292;2023-11-21T11:51:05;98475.44;;;13.44;100.00
50933;BME280;36921;49.006;9.292;2023-11-21T11:53:41;98483.09;;;13.35;100.00
50933;BME280;36921;49.006;9.292;2023-11-21T11:56:42;98481.88;;;13.49;100.00
50933;BME280;36921;49.006;9.292;2023-11-21T11:59:09;98482.34;;;13.28;100.00
50933;BME280;36921;49.006;9.292;2023-11-21T12:01:35;98477.75;;;13.10;100.00
50933;BME280;36921;49.006;9.292;2023-11-21T12:06:57;98486.56;;;12.50;100.00
50933;BME280;36921;49.006;9.292;2023-11-21T12:09:26;98497.63;;;12.23;100.00
50933;BME280;36921;49.006;9.292;2023-11-21T12:11:53;98514.84;;;12.11;100.00
50933;BME280;36921;49.006;9.292;2023-11-21T12:14:22;98518.69;;;11.96;100.00
50933;BME280;36921;49.006;9.292;2023-11-21T12:16:48;98521.69;;;11.88;100.00
50933;BME280;36921;49.006;9.292;2023-11-21T12:19:14;98519.13;;;12.00;100.00
50933;BME280;36921;49.006;9.292;2023-11-21T12:21:39;98523.03;;;12.04;100.00
50933;BME280;36921;49.006;9.292;2023-11-21T12:24:06;98508.03;;;12.01;100.00
50933;BME280;36921;49.006;9.292;2023-11-21T12:26:36;98515.34;;;12.01;100.00
50933;BME280;36921;49.006;9.292;2023-11-21T12:29:02;98516.41;;;12.00;100.00
50933;BME280;36921;49.006;9.292;2023-11-21T12:31:30;98510.09;;;11.68;100.00
50933;BME280;36921;49.006;9.292;2023-11-21T12:33:55;98520.56;;;11.57;100.00
50933;BME280;36921;49.006;9.292;2023-11-21T12:36:21;98528.16;;;11.42;100.00
50933;BME280;36921;49.006;9.292;2023-11-21T12:38:47;98536.94;;;11.31;100.00
50933;BME280;36921;49.006;9.292;2023-11-21T12:41:12;98525.59;;;11.54;100.00
50933;BME280;36921;49.006;9.292;2023-11-21T12:43:38;98524.69;;;11.67;100.00
50933;BME280;36921;49.006;9.292;2023-11-21T12:46:08;98512.19;;;11.66;100.00
50933;BME280;36921;49.006;9.292;2023-11-21T12:48:38;98518.75;;;11.45;100.00
50933;BME280;36921;49.006;9.292;2023-11-21T12:51:11;98532.66;;;11.61;100.00
50933;BME280;36921;49.006;9.292;2023-11-21T12:53:38;98526.69;;;11.84;100.00
50933;BME280;36921;49.006;9.292;2023-11-21T12:56:10;98521.16;;;12.30;100.00
50933;BME280;36921;49.006;9.292;2023-11-21T12:58:36;98509.34;;;13.41;100.00
50933;BME280;36921;49.006;9.292;2023-11-21T13:01:04;98495.28;;;15.51;100.00
50933;BME280;36921;49.006;9.292;2023-11-21T13:03:30;98498.00;;;18.08;100.00
50933;BME280;36921;49.006;9.292;2023-11-21T13:05:56;98502.72;;;20.33;100.00
50933;BME280;36921;49.006;9.292;2023-11-21T13:08:25;98499.94;;;21.70;100.00
50933;BME280;36921;49.006;9.292;2023-11-21T13:10:53;98497.41;;;22.18;90.53
50933;BME280;36921;49.006;9.292;2023-11-21T13:13:22;98512.59;;;20.86;99.93
50933;BME280;36921;49.006;9.292;2023-11-21T13:16:02;98528.16;;;17.42;100.00
50933;BME280;36921;49.006;9.292;2023-11-21T13:18:31;98527.94;;;15.46;100.00
50933;BME280;36921;49.006;9.292;2023-11-21T13:21:02;98528.31;;;14.20;100.00
50933;BME280;36921;49.006;9.292;2023-11-21T13:23:39;98527.56;;;14.55;100.00